4XDAW LLHZ-LLHZ

Flight info

Callsign 4XDAW
Flight time 0h 1m
Altitude 800
Route PATTERN
Aircraft CC19/L-VGD/A

Departure

Time 2026-04-17 13:39
Airport Herzliya Airport (LLHZ)

Arrival

Time 2026-04-17 13:41
Airport Herzliya Airport (LLHZ)
Time Latitude Longitude Altitude Speed Heading
2026-04-17 13:22 32.18211 34.82838 97 ft 0 kts 290°
2026-04-17 13:27 32.18212 34.82835 96 ft 1 kts 290°
2026-04-17 13:27 32.18197 34.82824 97 ft 4 kts 123°
2026-04-17 13:28 32.18160 34.82946 97 ft 15 kts 108°
2026-04-17 13:28 32.18111 34.83068 100 ft 19 kts 116°
2026-04-17 13:28 32.18046 34.83281 104 ft 34 kts 108°
2026-04-17 13:28 32.17967 34.83550 110 ft 35 kts 110°
2026-04-17 13:29 32.17891 34.83805 122 ft 23 kts 111°
2026-04-17 13:29 32.17881 34.83849 123 ft 0 kts 75°
2026-04-17 13:31 32.17884 34.83858 123 ft 10 kts 46°
2026-04-17 13:32 32.17922 34.83821 124 ft 4 kts 287°
2026-04-17 13:32 32.17923 34.83820 124 ft 1 kts 289°
2026-04-17 13:32 32.18032 34.83429 202 ft 83 kts 292°
2026-04-17 13:32 32.18446 34.82981 542 ft 96 kts 348°
2026-04-17 13:33 32.19134 34.83041 520 ft 98 kts 18°
2026-04-17 13:33 32.19260 34.83718 539 ft 103 kts 115°
2026-04-17 13:33 32.18890 34.84437 522 ft 101 kts 117°
2026-04-17 13:33 32.18647 34.85191 542 ft 93 kts 127°
2026-04-17 13:34 32.18066 34.85301 520 ft 96 kts 203°
2026-04-17 13:34 32.17537 34.84942 569 ft 74 kts 268°
2026-04-17 13:34 32.17765 34.84359 303 ft 91 kts 293°
2026-04-17 13:34 32.17944 34.83738 174 ft 79 kts 289°
2026-04-17 13:35 32.18106 34.83030 293 ft 93 kts 290°
2026-04-17 13:35 32.18406 34.82779 352 ft 70 kts 44°
2026-04-17 13:35 32.18932 34.82981 468 ft 92 kts
2026-04-17 13:35 32.19458 34.83363 527 ft 107 kts 93°
2026-04-17 13:36 32.19026 34.84082 529 ft 104 kts 128°
2026-04-17 13:36 32.18647 34.84695 481 ft 84 kts 112°
2026-04-17 13:36 32.18538 34.85348 548 ft 83 kts 103°
2026-04-17 13:36 32.18103 34.85556 551 ft 78 kts 220°
2026-04-17 13:37 32.17699 34.85126 518 ft 79 kts 237°
2026-04-17 13:37 32.17663 34.84645 421 ft 67 kts 296°
2026-04-17 13:37 32.17834 34.84110 210 ft 68 kts 293°
2026-04-17 13:37 32.17948 34.83513 303 ft 85 kts 282°
2026-04-17 13:38 32.18094 34.82972 290 ft 55 kts 295°
2026-04-17 13:38 32.18328 34.82651 454 ft 72 kts 10°
2026-04-17 13:38 32.18851 34.82950 502 ft 86 kts 16°
2026-04-17 13:38 32.19312 34.83235 540 ft 67 kts 40°
2026-04-17 13:39 32.19235 34.83816 614 ft 83 kts 118°
2026-04-17 13:39 32.19052 34.84455 623 ft 86 kts 106°
2026-04-17 13:39 32.18859 34.85212 842 ft 102 kts 107°
2026-04-17 13:39 32.18502 34.85777 685 ft 90 kts 184°
2026-04-17 13:40 32.18050 34.85391 604 ft 83 kts 239°
2026-04-17 13:40 32.17642 34.84941 577 ft 73 kts 251°
2026-04-17 13:40 32.17735 34.84406 329 ft 75 kts 295°
2026-04-17 13:40 32.17906 34.83879 147 ft 63 kts 292°
2026-04-17 13:41 32.18040 34.83431 105 ft 46 kts 291°
2026-04-17 13:41 32.18130 34.83125 97 ft 24 kts 289°
2026-04-17 13:41 32.18111 34.83069 98 ft 1 kts 129°
2026-04-17 13:41 32.18070 34.83201 101 ft 27 kts 110°
2026-04-17 13:42 32.18014 34.83392 105 ft 24 kts 109°
2026-04-17 13:42 32.17957 34.83578 109 ft 26 kts 110°
2026-04-17 13:42 32.17906 34.83757 119 ft 17 kts 108°
2026-04-17 13:42 32.17881 34.83850 123 ft 0 kts 81°
2026-04-17 13:48 32.17892 34.83865 124 ft 16 kts 27°
2026-04-17 13:49 32.17922 34.83911 122 ft 3 kts 282°
2026-04-17 13:49 32.17927 34.83808 123 ft 6 kts 290°
2026-04-17 13:49 32.17934 34.83785 122 ft 19 kts 289°
2026-04-17 13:49 32.18078 34.83310 226 ft 88 kts 290°
2026-04-17 13:50 32.18442 34.82862 516 ft 82 kts
2026-04-17 13:50 32.18966 34.83099 620 ft 80 kts 15°
2026-04-17 13:50 32.19187 34.83702 727 ft 106 kts 98°
2026-04-17 13:50 32.18985 34.84590 851 ft 113 kts 112°
2026-04-17 13:51 32.18851 34.85347 916 ft 87 kts 58°
2026-04-17 13:51 32.19317 34.85384 686 ft 78 kts 302°
2026-04-17 13:51 32.19119 34.84853 726 ft 85 kts 197°
2026-04-17 13:51 32.18737 34.85243 755 ft 84 kts 79°
2026-04-17 13:52 32.19177 34.85554 742 ft 83 kts 335°
2026-04-17 13:52 32.19320 34.84938 747 ft 89 kts 237°
2026-04-17 13:52 32.18793 34.85073 711 ft 96 kts 127°
2026-04-17 13:52 32.18290 34.85496 729 ft 89 kts 195°
2026-04-17 13:53 32.17749 34.85170 645 ft 82 kts 217°
2026-04-17 13:53 32.17574 34.84717 548 ft 64 kts 300°
2026-04-17 13:53 32.17780 34.84275 295 ft 60 kts 294°
2026-04-17 13:53 32.17925 34.83813 132 ft 59 kts 291°
2026-04-17 13:54 32.18421 34.82944 582 ft 89 kts
2026-04-17 13:54 32.19086 34.83192 734 ft 111 kts 12°
2026-04-17 13:55 32.19310 34.84595 819 ft 105 kts 111°
2026-04-17 13:55 32.19062 34.85332 762 ft 92 kts 111°
2026-04-17 13:55 32.18098 34.85262 781 ft 96 kts 216°
2026-04-17 13:56 32.17808 34.84192 283 ft 67 kts 294°
2026-04-17 13:56 32.17953 34.83711 119 ft 53 kts 294°
2026-04-17 13:56 32.18086 34.83281 234 ft 67 kts 293°
2026-04-17 13:57 32.18402 34.82899 578 ft 91 kts 359°
2026-04-17 13:57 32.19053 34.83146 861 ft 99 kts 10°
2026-04-17 13:57 32.18953 34.84528 721 ft 91 kts 119°
2026-04-17 13:58 32.18693 34.85185 815 ft 98 kts 114°
2026-04-17 13:58 32.17654 34.85048 695 ft 75 kts 254°
2026-04-17 13:58 32.17727 34.84467 370 ft 75 kts 291°
2026-04-17 13:59 32.18057 34.83367 96 ft 57 kts 289°
2026-04-17 13:59 32.18137 34.83100 90 ft 21 kts 287°
2026-04-17 13:59 32.18117 34.83054 92 ft 0 kts 236°
2026-04-17 14:00 32.18115 34.83051 90 ft 0 kts 241°
2026-04-17 14:00 32.18115 34.83050 91 ft 0 kts 249°